<?xml version="1.0" encoding="utf-8"?>
<gpx xmlns:xsi="http://www.w3.org/2001/XMLSchema-instance" xmlns:xsd="http://www.w3.org/2001/XMLSchema" version="1.1" creator="Shapelink.com" xmlns="http://www.topografix.com/GPX/1/1" xmlns:gpxtpx="http://www.garmin.com/xmlschemas/TrackPointExtension/v1">
  <metadata>
    <name>Löpning 5.00 km, 2019-09-07</name>
    <desc></desc>
    <author><name>Bengt Norberg</name></author> 
    <time>2019-09-07T15:13:40Z</time>
  </metadata>
  <trk>
    <name>Löpning 5.00 km, 2019-09-07</name>
    <trkseg>
      <trkpt lat="59.820002425662" lon="16.985038909396">
        <ele>36.4</ele>
        <time>2019-09-07T15:13:40Z</time>
      </trkpt>
      <trkpt lat="59.819821628079" lon="16.985012254954">
        <ele>36</ele>
        <time>2019-09-07T15:13:49Z</time>
      </trkpt>
      <trkpt lat="59.819634460252" lon="16.98503689774">
        <ele>31.6</ele>
        <time>2019-09-07T15:13:57Z</time>
      </trkpt>
      <trkpt lat="59.819438156154" lon="16.98509221828">
        <ele>30</ele>
        <time>2019-09-07T15:14:05Z</time>
      </trkpt>
      <trkpt lat="59.819414938291" lon="16.985103198569">
        <ele>30</ele>
        <time>2019-09-07T15:14:06Z</time>
      </trkpt>
      <trkpt lat="59.819376884465" lon="16.985147371182">
        <ele>30.8</ele>
        <time>2019-09-07T15:14:15Z</time>
      </trkpt>
      <trkpt lat="59.819433127014" lon="16.985526903614">
        <ele>31.8</ele>
        <time>2019-09-07T15:14:24Z</time>
      </trkpt>
      <trkpt lat="59.819488615192" lon="16.985882379993">
        <ele>32.2</ele>
        <time>2019-09-07T15:14:31Z</time>
      </trkpt>
      <trkpt lat="59.819552149994" lon="16.986233330146">
        <ele>34.2</ele>
        <time>2019-09-07T15:14:38Z</time>
      </trkpt>
      <trkpt lat="59.81960948219" lon="16.986586794869">
        <ele>33.2</ele>
        <time>2019-09-07T15:14:45Z</time>
      </trkpt>
      <trkpt lat="59.819670334784" lon="16.98697227845">
        <ele>31.6</ele>
        <time>2019-09-07T15:14:53Z</time>
      </trkpt>
      <trkpt lat="59.819727247885" lon="16.987345356819">
        <ele>29.4</ele>
        <time>2019-09-07T15:15:01Z</time>
      </trkpt>
      <trkpt lat="59.819778293656" lon="16.987693038031">
        <ele>28.4</ele>
        <time>2019-09-07T15:15:08Z</time>
      </trkpt>
      <trkpt lat="59.819837134594" lon="16.988079611259">
        <ele>28</ele>
        <time>2019-09-07T15:15:16Z</time>
      </trkpt>
      <trkpt lat="59.81990117231" lon="16.988461155347">
        <ele>28</ele>
        <time>2019-09-07T15:15:24Z</time>
      </trkpt>
      <trkpt lat="59.819963701284" lon="16.988837418838">
        <ele>28.2</ele>
        <time>2019-09-07T15:15:32Z</time>
      </trkpt>
      <trkpt lat="59.820017429263" lon="16.989209072284">
        <ele>27.2</ele>
        <time>2019-09-07T15:15:40Z</time>
      </trkpt>
      <trkpt lat="59.820047771741" lon="16.989266739756">
        <ele>26.6</ele>
        <time>2019-09-07T15:15:42Z</time>
      </trkpt>
      <trkpt lat="59.820169057834" lon="16.989204965153">
        <ele>25.6</ele>
        <time>2019-09-07T15:15:47Z</time>
      </trkpt>
      <trkpt lat="59.820351699435" lon="16.989089630209">
        <ele>23.6</ele>
        <time>2019-09-07T15:15:55Z</time>
      </trkpt>
      <trkpt lat="59.820537107063" lon="16.988982760984">
        <ele>22.6</ele>
        <time>2019-09-07T15:16:03Z</time>
      </trkpt>
      <trkpt lat="59.820720251578" lon="16.988880501804">
        <ele>22</ele>
        <time>2019-09-07T15:16:11Z</time>
      </trkpt>
      <trkpt lat="59.820904737197" lon="16.98878444523">
        <ele>21.8</ele>
        <time>2019-09-07T15:16:19Z</time>
      </trkpt>
      <trkpt lat="59.821090983015" lon="16.988706158284">
        <ele>22.4</ele>
        <time>2019-09-07T15:16:27Z</time>
      </trkpt>
      <trkpt lat="59.821281838878" lon="16.988633906306">
        <ele>23.4</ele>
        <time>2019-09-07T15:16:35Z</time>
      </trkpt>
      <trkpt lat="59.821469090524" lon="16.98854807565">
        <ele>23.8</ele>
        <time>2019-09-07T15:16:43Z</time>
      </trkpt>
      <trkpt lat="59.821655839256" lon="16.988435925828">
        <ele>23.6</ele>
        <time>2019-09-07T15:16:51Z</time>
      </trkpt>
      <trkpt lat="59.821846695119" lon="16.988318914504">
        <ele>23.8</ele>
        <time>2019-09-07T15:16:59Z</time>
      </trkpt>
      <trkpt lat="59.822035790783" lon="16.988183965914">
        <ele>23.4</ele>
        <time>2019-09-07T15:17:07Z</time>
      </trkpt>
      <trkpt lat="59.82221876766" lon="16.988047005668">
        <ele>24</ele>
        <time>2019-09-07T15:17:15Z</time>
      </trkpt>
      <trkpt lat="59.822409707342" lon="16.987937370416">
        <ele>24</ele>
        <time>2019-09-07T15:17:23Z</time>
      </trkpt>
      <trkpt lat="59.822594947332" lon="16.987805020215">
        <ele>24.4</ele>
        <time>2019-09-07T15:17:31Z</time>
      </trkpt>
      <trkpt lat="59.82277867858" lon="16.987704102139">
        <ele>24.6</ele>
        <time>2019-09-07T15:17:39Z</time>
      </trkpt>
      <trkpt lat="59.822963248018" lon="16.98759756819">
        <ele>24.6</ele>
        <time>2019-09-07T15:17:47Z</time>
      </trkpt>
      <trkpt lat="59.82314496761" lon="16.987469492758">
        <ele>25.8</ele>
        <time>2019-09-07T15:17:55Z</time>
      </trkpt>
      <trkpt lat="59.823327441573" lon="16.987350637416">
        <ele>25.2</ele>
        <time>2019-09-07T15:18:03Z</time>
      </trkpt>
      <trkpt lat="59.823514022667" lon="16.987239577241">
        <ele>25</ele>
        <time>2019-09-07T15:18:11Z</time>
      </trkpt>
      <trkpt lat="59.823700855218" lon="16.987122063003">
        <ele>24.8</ele>
        <time>2019-09-07T15:18:19Z</time>
      </trkpt>
      <trkpt lat="59.823879892602" lon="16.987010164638">
        <ele>24.4</ele>
        <time>2019-09-07T15:18:27Z</time>
      </trkpt>
      <trkpt lat="59.824064126764" lon="16.986902038128">
        <ele>25.8</ele>
        <time>2019-09-07T15:18:35Z</time>
      </trkpt>
      <trkpt lat="59.824262777794" lon="16.986842359">
        <ele>24.8</ele>
        <time>2019-09-07T15:18:43Z</time>
      </trkpt>
      <trkpt lat="59.824465284498" lon="16.986776309628">
        <ele>25.6</ele>
        <time>2019-09-07T15:18:51Z</time>
      </trkpt>
      <trkpt lat="59.824662259148" lon="16.986694083189">
        <ele>25.8</ele>
        <time>2019-09-07T15:18:59Z</time>
      </trkpt>
      <trkpt lat="59.824850097527" lon="16.986610348008">
        <ele>25.4</ele>
        <time>2019-09-07T15:19:07Z</time>
      </trkpt>
      <trkpt lat="59.825038103544" lon="16.986508591742">
        <ele>25.2</ele>
        <time>2019-09-07T15:19:15Z</time>
      </trkpt>
      <trkpt lat="59.825225271371" lon="16.986407170752">
        <ele>24.6</ele>
        <time>2019-09-07T15:19:23Z</time>
      </trkpt>
      <trkpt lat="59.825411181913" lon="16.986304324839">
        <ele>24.4</ele>
        <time>2019-09-07T15:19:31Z</time>
      </trkpt>
      <trkpt lat="59.825596086627" lon="16.986182032918">
        <ele>24.6</ele>
        <time>2019-09-07T15:19:39Z</time>
      </trkpt>
      <trkpt lat="59.825782667721" lon="16.986073068218">
        <ele>24.8</ele>
        <time>2019-09-07T15:19:47Z</time>
      </trkpt>
      <trkpt lat="59.82596380058" lon="16.985962930052">
        <ele>25</ele>
        <time>2019-09-07T15:19:55Z</time>
      </trkpt>
      <trkpt lat="59.82617418627" lon="16.9858449129">
        <ele>25</ele>
        <time>2019-09-07T15:20:04Z</time>
      </trkpt>
      <trkpt lat="59.826349703256" lon="16.985723123893">
        <ele>24.8</ele>
        <time>2019-09-07T15:20:12Z</time>
      </trkpt>
      <trkpt lat="59.826386835073" lon="16.985407210082">
        <ele>26.6</ele>
        <time>2019-09-07T15:20:20Z</time>
      </trkpt>
      <trkpt lat="59.82634685341" lon="16.985051063151">
        <ele>27.6</ele>
        <time>2019-09-07T15:20:28Z</time>
      </trkpt>
      <trkpt lat="59.826313409629" lon="16.984676559859">
        <ele>28</ele>
        <time>2019-09-07T15:20:36Z</time>
      </trkpt>
      <trkpt lat="59.826286587549" lon="16.984297530341">
        <ele>27.6</ele>
        <time>2019-09-07T15:20:44Z</time>
      </trkpt>
      <trkpt lat="59.826270913396" lon="16.983962505798">
        <ele>27.4</ele>
        <time>2019-09-07T15:20:51Z</time>
      </trkpt>
      <trkpt lat="59.826251467388" lon="16.983591774361">
        <ele>26.8</ele>
        <time>2019-09-07T15:20:59Z</time>
      </trkpt>
      <trkpt lat="59.826230428819" lon="16.983221545838">
        <ele>26.4</ele>
        <time>2019-09-07T15:21:07Z</time>
      </trkpt>
      <trkpt lat="59.826208971155" lon="16.982847880736">
        <ele>25.8</ele>
        <time>2019-09-07T15:21:15Z</time>
      </trkpt>
      <trkpt lat="59.826183825455" lon="16.982473628901">
        <ele>25.2</ele>
        <time>2019-09-07T15:21:23Z</time>
      </trkpt>
      <trkpt lat="59.826153399158" lon="16.982095772849">
        <ele>25.6</ele>
        <time>2019-09-07T15:21:31Z</time>
      </trkpt>
      <trkpt lat="59.826122889042" lon="16.981733339493">
        <ele>25.6</ele>
        <time>2019-09-07T15:21:39Z</time>
      </trkpt>
      <trkpt lat="59.826097491885" lon="16.981360847857">
        <ele>25.6</ele>
        <time>2019-09-07T15:21:47Z</time>
      </trkpt>
      <trkpt lat="59.826071507995" lon="16.980994894103">
        <ele>25.2</ele>
        <time>2019-09-07T15:21:55Z</time>
      </trkpt>
      <trkpt lat="59.826042171345" lon="16.980630868186">
        <ele>25.8</ele>
        <time>2019-09-07T15:22:03Z</time>
      </trkpt>
      <trkpt lat="59.826012247962" lon="16.98027011121">
        <ele>26.2</ele>
        <time>2019-09-07T15:22:11Z</time>
      </trkpt>
      <trkpt lat="59.825986599348" lon="16.979916562668">
        <ele>26.6</ele>
        <time>2019-09-07T15:22:19Z</time>
      </trkpt>
      <trkpt lat="59.825945863314" lon="16.979528732155">
        <ele>27.8</ele>
        <time>2019-09-07T15:22:28Z</time>
      </trkpt>
      <trkpt lat="59.825909485868" lon="16.979138889986">
        <ele>28.4</ele>
        <time>2019-09-07T15:22:37Z</time>
      </trkpt>
      <trkpt lat="59.82589842176" lon="16.978778887381">
        <ele>29.6</ele>
        <time>2019-09-07T15:22:45Z</time>
      </trkpt>
      <trkpt lat="59.825906384565" lon="16.978743851039">
        <ele>29.8</ele>
        <time>2019-09-07T15:22:46Z</time>
      </trkpt>
      <trkpt lat="59.826070334529" lon="16.978652320691">
        <ele>30.2</ele>
        <time>2019-09-07T15:22:53Z</time>
      </trkpt>
      <trkpt lat="59.826253562863" lon="16.97856607094">
        <ele>30.4</ele>
        <time>2019-09-07T15:23:01Z</time>
      </trkpt>
      <trkpt lat="59.826433606075" lon="16.978469427633">
        <ele>30.8</ele>
        <time>2019-09-07T15:23:09Z</time>
      </trkpt>
      <trkpt lat="59.826607698138" lon="16.97837580181">
        <ele>28.8</ele>
        <time>2019-09-07T15:23:17Z</time>
      </trkpt>
      <trkpt lat="59.826788830997" lon="16.978267842938">
        <ele>27.2</ele>
        <time>2019-09-07T15:23:25Z</time>
      </trkpt>
      <trkpt lat="59.826968538933" lon="16.978178743341">
        <ele>26.2</ele>
        <time>2019-09-07T15:23:33Z</time>
      </trkpt>
      <trkpt lat="59.827144977928" lon="16.978082183853">
        <ele>26</ele>
        <time>2019-09-07T15:23:41Z</time>
      </trkpt>
      <trkpt lat="59.827326194606" lon="16.977990988781">
        <ele>26</ele>
        <time>2019-09-07T15:23:49Z</time>
      </trkpt>
      <trkpt lat="59.827496598633" lon="16.977873642181">
        <ele>25.8</ele>
        <time>2019-09-07T15:23:57Z</time>
      </trkpt>
      <trkpt lat="59.82768963379" lon="16.977751266441">
        <ele>25.2</ele>
        <time>2019-09-07T15:24:06Z</time>
      </trkpt>
      <trkpt lat="59.827837322868" lon="16.977602655354">
        <ele>25.4</ele>
        <time>2019-09-07T15:24:13Z</time>
      </trkpt>
      <trkpt lat="59.827844531302" lon="16.977610366702">
        <ele>25.2</ele>
        <time>2019-09-07T15:24:15Z</time>
      </trkpt>
      <trkpt lat="59.827675803655" lon="16.977818237822">
        <ele>26</ele>
        <time>2019-09-07T15:24:24Z</time>
      </trkpt>
      <trkpt lat="59.827502214506" lon="16.977961903588">
        <ele>28.6</ele>
        <time>2019-09-07T15:24:32Z</time>
      </trkpt>
      <trkpt lat="59.827330972289" lon="16.978089559925">
        <ele>31.4</ele>
        <time>2019-09-07T15:24:40Z</time>
      </trkpt>
      <trkpt lat="59.827156964045" lon="16.978184610671">
        <ele>32.8</ele>
        <time>2019-09-07T15:24:48Z</time>
      </trkpt>
      <trkpt lat="59.826978764851" lon="16.978287875679">
        <ele>33.8</ele>
        <time>2019-09-07T15:24:56Z</time>
      </trkpt>
      <trkpt lat="59.826787657531" lon="16.978406982478">
        <ele>36.4</ele>
        <time>2019-09-07T15:25:05Z</time>
      </trkpt>
      <trkpt lat="59.826606021758" lon="16.978538578308">
        <ele>38.8</ele>
        <time>2019-09-07T15:25:14Z</time>
      </trkpt>
      <trkpt lat="59.826427487288" lon="16.978642932963">
        <ele>40.4</ele>
        <time>2019-09-07T15:25:22Z</time>
      </trkpt>
      <trkpt lat="59.826240235642" lon="16.978729685628">
        <ele>40.4</ele>
        <time>2019-09-07T15:25:30Z</time>
      </trkpt>
      <trkpt lat="59.826057594041" lon="16.978810906239">
        <ele>39.2</ele>
        <time>2019-09-07T15:25:38Z</time>
      </trkpt>
      <trkpt lat="59.825939912165" lon="16.978962702448">
        <ele>38.2</ele>
        <time>2019-09-07T15:25:45Z</time>
      </trkpt>
      <trkpt lat="59.825995819438" lon="16.979346593468">
        <ele>39</ele>
        <time>2019-09-07T15:25:53Z</time>
      </trkpt>
      <trkpt lat="59.826039656775" lon="16.97974121332">
        <ele>39.8</ele>
        <time>2019-09-07T15:26:01Z</time>
      </trkpt>
      <trkpt lat="59.826074190203" lon="16.980135330258">
        <ele>40</ele>
        <time>2019-09-07T15:26:09Z</time>
      </trkpt>
      <trkpt lat="59.82610377831" lon="16.98049055518">
        <ele>40</ele>
        <time>2019-09-07T15:26:16Z</time>
      </trkpt>
      <trkpt lat="59.826137222091" lon="16.981207794363">
        <ele>36.2</ele>
        <time>2019-09-07T15:26:31Z</time>
      </trkpt>
      <trkpt lat="59.826162870705" lon="16.981604844966">
        <ele>34.6</ele>
        <time>2019-09-07T15:26:39Z</time>
      </trkpt>
      <trkpt lat="59.826192374993" lon="16.982001392655">
        <ele>34.4</ele>
        <time>2019-09-07T15:26:47Z</time>
      </trkpt>
      <trkpt lat="59.826233530122" lon="16.982363574554">
        <ele>35.8</ele>
        <time>2019-09-07T15:26:54Z</time>
      </trkpt>
      <trkpt lat="59.826266554808" lon="16.982718128924">
        <ele>36</ele>
        <time>2019-09-07T15:27:01Z</time>
      </trkpt>
      <trkpt lat="59.826285749359" lon="16.983081232832">
        <ele>35.4</ele>
        <time>2019-09-07T15:27:08Z</time>
      </trkpt>
      <trkpt lat="59.826317181484" lon="16.98347786434">
        <ele>35.4</ele>
        <time>2019-09-07T15:27:16Z</time>
      </trkpt>
      <trkpt lat="59.826342075727" lon="16.983885392318">
        <ele>33.4</ele>
        <time>2019-09-07T15:27:24Z</time>
      </trkpt>
      <trkpt lat="59.826364623038" lon="16.984243802362">
        <ele>32.6</ele>
        <time>2019-09-07T15:27:31Z</time>
      </trkpt>
      <trkpt lat="59.826399072647" lon="16.98459517161">
        <ele>33.4</ele>
        <time>2019-09-07T15:27:38Z</time>
      </trkpt>
      <trkpt lat="59.826424134528" lon="16.984986019607">
        <ele>32.8</ele>
        <time>2019-09-07T15:27:46Z</time>
      </trkpt>
      <trkpt lat="59.826452213893" lon="16.985343926737">
        <ele>33.2</ele>
        <time>2019-09-07T15:27:53Z</time>
      </trkpt>
      <trkpt lat="59.826481802" lon="16.985747179946">
        <ele>32.6</ele>
        <time>2019-09-07T15:28:01Z</time>
      </trkpt>
      <trkpt lat="59.826487501692" lon="16.985773834388">
        <ele>31.2</ele>
        <time>2019-09-07T15:28:02Z</time>
      </trkpt>
      <trkpt lat="59.826617504961" lon="16.985801243201">
        <ele>30.8</ele>
        <time>2019-09-07T15:28:07Z</time>
      </trkpt>
      <trkpt lat="59.826819341113" lon="16.985848684755">
        <ele>33.2</ele>
        <time>2019-09-07T15:28:14Z</time>
      </trkpt>
      <trkpt lat="59.827007011854" lon="16.985906771322">
        <ele>34</ele>
        <time>2019-09-07T15:28:20Z</time>
      </trkpt>
      <trkpt lat="59.82719007255" lon="16.985940969474">
        <ele>36</ele>
        <time>2019-09-07T15:28:26Z</time>
      </trkpt>
      <trkpt lat="59.827391992521" lon="16.985938371085">
        <ele>34.6</ele>
        <time>2019-09-07T15:28:34Z</time>
      </trkpt>
      <trkpt lat="59.827567509507" lon="16.985733601268">
        <ele>30.4</ele>
        <time>2019-09-07T15:28:43Z</time>
      </trkpt>
      <trkpt lat="59.827731794747" lon="16.985504188665">
        <ele>27.8</ele>
        <time>2019-09-07T15:28:51Z</time>
      </trkpt>
      <trkpt lat="59.827880322015" lon="16.98529757483">
        <ele>26.2</ele>
        <time>2019-09-07T15:28:58Z</time>
      </trkpt>
      <trkpt lat="59.828028011093" lon="16.985086602407">
        <ele>25.2</ele>
        <time>2019-09-07T15:29:05Z</time>
      </trkpt>
      <trkpt lat="59.828194559446" lon="16.984918042398">
        <ele>23.4</ele>
        <time>2019-09-07T15:29:12Z</time>
      </trkpt>
      <trkpt lat="59.828365466387" lon="16.984787787672">
        <ele>24.8</ele>
        <time>2019-09-07T15:29:19Z</time>
      </trkpt>
      <trkpt lat="59.828546766884" lon="16.984608917926">
        <ele>25</ele>
        <time>2019-09-07T15:29:27Z</time>
      </trkpt>
      <trkpt lat="59.828710800667" lon="16.984440525555">
        <ele>26</ele>
        <time>2019-09-07T15:29:34Z</time>
      </trkpt>
      <trkpt lat="59.828862513057" lon="16.984169622547">
        <ele>26.6</ele>
        <time>2019-09-07T15:29:42Z</time>
      </trkpt>
      <trkpt lat="59.828997126371" lon="16.983875417857">
        <ele>26.2</ele>
        <time>2019-09-07T15:29:50Z</time>
      </trkpt>
      <trkpt lat="59.829116484627" lon="16.983607029419">
        <ele>27.4</ele>
        <time>2019-09-07T15:29:57Z</time>
      </trkpt>
      <trkpt lat="59.829245901163" lon="16.983293294902">
        <ele>26.8</ele>
        <time>2019-09-07T15:30:05Z</time>
      </trkpt>
      <trkpt lat="59.82937942483" lon="16.982999425488">
        <ele>26</ele>
        <time>2019-09-07T15:30:13Z</time>
      </trkpt>
      <trkpt lat="59.829499705095" lon="16.982734305991">
        <ele>26.8</ele>
        <time>2019-09-07T15:30:20Z</time>
      </trkpt>
      <trkpt lat="59.829627612889" lon="16.982477568394">
        <ele>26</ele>
        <time>2019-09-07T15:30:27Z</time>
      </trkpt>
      <trkpt lat="59.829781001659" lon="16.982266512152">
        <ele>25</ele>
        <time>2019-09-07T15:30:34Z</time>
      </trkpt>
      <trkpt lat="59.829960709595" lon="16.982075069556">
        <ele>25</ele>
        <time>2019-09-07T15:30:42Z</time>
      </trkpt>
      <trkpt lat="59.830135388391" lon="16.981865773513">
        <ele>24.6</ele>
        <time>2019-09-07T15:30:50Z</time>
      </trkpt>
      <trkpt lat="59.830310234825" lon="16.981670056148">
        <ele>24.8</ele>
        <time>2019-09-07T15:30:58Z</time>
      </trkpt>
      <trkpt lat="59.83048248287" lon="16.981452881119">
        <ele>25</ele>
        <time>2019-09-07T15:31:06Z</time>
      </trkpt>
      <trkpt lat="59.830657077847" lon="16.981247105474">
        <ele>25.2</ele>
        <time>2019-09-07T15:31:14Z</time>
      </trkpt>
      <trkpt lat="59.830837204878" lon="16.981077455818">
        <ele>26.4</ele>
        <time>2019-09-07T15:31:22Z</time>
      </trkpt>
      <trkpt lat="59.831001825394" lon="16.980859442599">
        <ele>28.6</ele>
        <time>2019-09-07T15:31:30Z</time>
      </trkpt>
      <trkpt lat="59.831175414543" lon="16.980683171242">
        <ele>29</ele>
        <time>2019-09-07T15:31:38Z</time>
      </trkpt>
      <trkpt lat="59.831348752235" lon="16.980484101117">
        <ele>29.2</ele>
        <time>2019-09-07T15:31:46Z</time>
      </trkpt>
      <trkpt lat="59.831525610325" lon="16.98031118252">
        <ele>28.6</ele>
        <time>2019-09-07T15:31:54Z</time>
      </trkpt>
      <trkpt lat="59.831708335745" lon="16.980152094058">
        <ele>27.6</ele>
        <time>2019-09-07T15:32:02Z</time>
      </trkpt>
      <trkpt lat="59.831895084477" lon="16.980010020853">
        <ele>28.6</ele>
        <time>2019-09-07T15:32:10Z</time>
      </trkpt>
      <trkpt lat="59.832181158724" lon="16.979840706473">
        <ele>31.6</ele>
        <time>2019-09-07T15:32:22Z</time>
      </trkpt>
      <trkpt lat="59.832373355691" lon="16.979745823365">
        <ele>32.6</ele>
        <time>2019-09-07T15:32:30Z</time>
      </trkpt>
      <trkpt lat="59.832563457183" lon="16.979651107895">
        <ele>34.2</ele>
        <time>2019-09-07T15:32:38Z</time>
      </trkpt>
      <trkpt lat="59.832582232639" lon="16.97962638129">
        <ele>34.6</ele>
        <time>2019-09-07T15:32:40Z</time>
      </trkpt>
      <trkpt lat="59.832427251308" lon="16.979795360394">
        <ele>34.4</ele>
        <time>2019-09-07T15:32:47Z</time>
      </trkpt>
      <trkpt lat="59.832238742377" lon="16.979876916281">
        <ele>36.4</ele>
        <time>2019-09-07T15:32:54Z</time>
      </trkpt>
      <trkpt lat="59.832064063581" lon="16.979989988112">
        <ele>38.2</ele>
        <time>2019-09-07T15:33:01Z</time>
      </trkpt>
      <trkpt lat="59.831870860786" lon="16.980118817915">
        <ele>37.4</ele>
        <time>2019-09-07T15:33:09Z</time>
      </trkpt>
      <trkpt lat="59.831702552234" lon="16.980248402089">
        <ele>35.6</ele>
        <time>2019-09-07T15:33:16Z</time>
      </trkpt>
      <trkpt lat="59.831518401891" lon="16.98041260351">
        <ele>33.6</ele>
        <time>2019-09-07T15:33:24Z</time>
      </trkpt>
      <trkpt lat="59.831345734751" lon="16.980610332531">
        <ele>34.6</ele>
        <time>2019-09-07T15:33:32Z</time>
      </trkpt>
      <trkpt lat="59.83117147505" lon="16.980817197823">
        <ele>34.4</ele>
        <time>2019-09-07T15:33:40Z</time>
      </trkpt>
      <trkpt lat="59.831014314425" lon="16.981012412274">
        <ele>34.2</ele>
        <time>2019-09-07T15:33:47Z</time>
      </trkpt>
      <trkpt lat="59.830855896515" lon="16.98119547297">
        <ele>34.2</ele>
        <time>2019-09-07T15:33:54Z</time>
      </trkpt>
      <trkpt lat="59.830701418098" lon="16.981382892254">
        <ele>34</ele>
        <time>2019-09-07T15:34:01Z</time>
      </trkpt>
      <trkpt lat="59.830524727646" lon="16.981582465293">
        <ele>34</ele>
        <time>2019-09-07T15:34:09Z</time>
      </trkpt>
      <trkpt lat="59.830366896469" lon="16.981765358351">
        <ele>33.6</ele>
        <time>2019-09-07T15:34:16Z</time>
      </trkpt>
      <trkpt lat="59.830188110542" lon="16.981967194503">
        <ele>31.6</ele>
        <time>2019-09-07T15:34:24Z</time>
      </trkpt>
      <trkpt lat="59.830017538877" lon="16.982157463633">
        <ele>29.4</ele>
        <time>2019-09-07T15:34:32Z</time>
      </trkpt>
      <trkpt lat="59.829845709927" lon="16.982359551242">
        <ele>30.6</ele>
        <time>2019-09-07T15:34:40Z</time>
      </trkpt>
      <trkpt lat="59.829676479366" lon="16.982572283864">
        <ele>29.4</ele>
        <time>2019-09-07T15:34:48Z</time>
      </trkpt>
      <trkpt lat="59.829525521347" lon="16.982830530203">
        <ele>28.8</ele>
        <time>2019-09-07T15:34:56Z</time>
      </trkpt>
      <trkpt lat="59.829391662404" lon="16.983126243635">
        <ele>30</ele>
        <time>2019-09-07T15:35:04Z</time>
      </trkpt>
      <trkpt lat="59.829261407678" lon="16.983434027003">
        <ele>29.2</ele>
        <time>2019-09-07T15:35:12Z</time>
      </trkpt>
      <trkpt lat="59.829140373042" lon="16.983739463439">
        <ele>30.8</ele>
        <time>2019-09-07T15:35:20Z</time>
      </trkpt>
      <trkpt lat="59.82901816494" lon="16.984045905703">
        <ele>31.2</ele>
        <time>2019-09-07T15:35:28Z</time>
      </trkpt>
      <trkpt lat="59.828885060368" lon="16.984334578339">
        <ele>31.4</ele>
        <time>2019-09-07T15:35:36Z</time>
      </trkpt>
      <trkpt lat="59.828744495905" lon="16.984556950146">
        <ele>32</ele>
        <time>2019-09-07T15:35:43Z</time>
      </trkpt>
      <trkpt lat="59.828578282828" lon="16.984729952562">
        <ele>32.6</ele>
        <time>2019-09-07T15:35:50Z</time>
      </trkpt>
      <trkpt lat="59.828413327036" lon="16.984877474002">
        <ele>32.6</ele>
        <time>2019-09-07T15:35:57Z</time>
      </trkpt>
      <trkpt lat="59.828248287425" lon="16.985032287695">
        <ele>32.4</ele>
        <time>2019-09-07T15:36:04Z</time>
      </trkpt>
      <trkpt lat="59.828084086004" lon="16.985180060592">
        <ele>30.4</ele>
        <time>2019-09-07T15:36:11Z</time>
      </trkpt>
      <trkpt lat="59.82790253405" lon="16.985372928111">
        <ele>28.2</ele>
        <time>2019-09-07T15:36:19Z</time>
      </trkpt>
      <trkpt lat="59.827745038149" lon="16.985577195014">
        <ele>27.6</ele>
        <time>2019-09-07T15:36:26Z</time>
      </trkpt>
      <trkpt lat="59.827575220855" lon="16.98577869589">
        <ele>29</ele>
        <time>2019-09-07T15:36:34Z</time>
      </trkpt>
      <trkpt lat="59.827409091597" lon="16.985929905366">
        <ele>29</ele>
        <time>2019-09-07T15:36:41Z</time>
      </trkpt>
      <trkpt lat="59.827207171626" lon="16.985987237562">
        <ele>30.2</ele>
        <time>2019-09-07T15:36:49Z</time>
      </trkpt>
      <trkpt lat="59.827024362387" lon="16.9859538776">
        <ele>31.4</ele>
        <time>2019-09-07T15:36:56Z</time>
      </trkpt>
      <trkpt lat="59.826831411049" lon="16.985901490725">
        <ele>32.6</ele>
        <time>2019-09-07T15:37:03Z</time>
      </trkpt>
      <trkpt lat="59.826629071983" lon="16.985836698638">
        <ele>33.2</ele>
        <time>2019-09-07T15:37:11Z</time>
      </trkpt>
      <trkpt lat="59.826428828392" lon="16.985779031166">
        <ele>32.8</ele>
        <time>2019-09-07T15:37:19Z</time>
      </trkpt>
      <trkpt lat="59.826246941162" lon="16.985849187669">
        <ele>33.2</ele>
        <time>2019-09-07T15:37:27Z</time>
      </trkpt>
      <trkpt lat="59.826069663977" lon="16.985975921997">
        <ele>34.6</ele>
        <time>2019-09-07T15:37:35Z</time>
      </trkpt>
      <trkpt lat="59.825885513634" lon="16.986099135927">
        <ele>34.2</ele>
        <time>2019-09-07T15:37:43Z</time>
      </trkpt>
      <trkpt lat="59.825700273644" lon="16.986208435903">
        <ele>33.4</ele>
        <time>2019-09-07T15:37:51Z</time>
      </trkpt>
      <trkpt lat="59.825506400297" lon="16.986311030359">
        <ele>32.6</ele>
        <time>2019-09-07T15:37:59Z</time>
      </trkpt>
      <trkpt lat="59.825315209158" lon="16.986427874045">
        <ele>33.8</ele>
        <time>2019-09-07T15:38:07Z</time>
      </trkpt>
      <trkpt lat="59.825068362203" lon="16.986559302237">
        <ele>33.8</ele>
        <time>2019-09-07T15:38:17Z</time>
      </trkpt>
      <trkpt lat="59.824887480801" lon="16.986650245852">
        <ele>34.4</ele>
        <time>2019-09-07T15:38:24Z</time>
      </trkpt>
      <trkpt lat="59.824710371254" lon="16.986725431495">
        <ele>35</ele>
        <time>2019-09-07T15:38:31Z</time>
      </trkpt>
      <trkpt lat="59.824522197599" lon="16.986830456702">
        <ele>36.4</ele>
        <time>2019-09-07T15:38:39Z</time>
      </trkpt>
      <trkpt lat="59.82434022655" lon="16.986913940426">
        <ele>37.6</ele>
        <time>2019-09-07T15:38:46Z</time>
      </trkpt>
      <trkpt lat="59.824145850289" lon="16.98702005528">
        <ele>38.4</ele>
        <time>2019-09-07T15:38:54Z</time>
      </trkpt>
      <trkpt lat="59.823966309991" lon="16.98709213962">
        <ele>36.8</ele>
        <time>2019-09-07T15:39:01Z</time>
      </trkpt>
      <trkpt lat="59.823794145765" lon="16.987192303325">
        <ele>36.6</ele>
        <time>2019-09-07T15:39:08Z</time>
      </trkpt>
      <trkpt lat="59.823619969883" lon="16.987299340188">
        <ele>37.8</ele>
        <time>2019-09-07T15:39:15Z</time>
      </trkpt>
      <trkpt lat="59.823443949983" lon="16.987407634336">
        <ele>38</ele>
        <time>2019-09-07T15:39:22Z</time>
      </trkpt>
      <trkpt lat="59.823253680853" lon="16.987539313985">
        <ele>38.2</ele>
        <time>2019-09-07T15:39:30Z</time>
      </trkpt>
      <trkpt lat="59.823079253514" lon="16.987651128531">
        <ele>37.8</ele>
        <time>2019-09-07T15:39:37Z</time>
      </trkpt>
      <trkpt lat="59.822899042664" lon="16.987766295837">
        <ele>37.8</ele>
        <time>2019-09-07T15:39:44Z</time>
      </trkpt>
      <trkpt lat="59.82270240329" lon="16.987871572501">
        <ele>37.2</ele>
        <time>2019-09-07T15:39:52Z</time>
      </trkpt>
      <trkpt lat="59.822506769744" lon="16.987988667644">
        <ele>37.2</ele>
        <time>2019-09-07T15:40:00Z</time>
      </trkpt>
      <trkpt lat="59.82232857055" lon="16.988093525213">
        <ele>37.4</ele>
        <time>2019-09-07T15:40:07Z</time>
      </trkpt>
      <trkpt lat="59.822153137383" lon="16.98820190318">
        <ele>37.4</ele>
        <time>2019-09-07T15:40:14Z</time>
      </trkpt>
      <trkpt lat="59.821973848542" lon="16.988315980839">
        <ele>35.8</ele>
        <time>2019-09-07T15:40:21Z</time>
      </trkpt>
      <trkpt lat="59.821795146434" lon="16.988426202824">
        <ele>35.4</ele>
        <time>2019-09-07T15:40:28Z</time>
      </trkpt>
      <trkpt lat="59.82162197638" lon="16.988540280483">
        <ele>35.2</ele>
        <time>2019-09-07T15:40:35Z</time>
      </trkpt>
      <trkpt lat="59.821437239304" lon="16.988641533835">
        <ele>33.4</ele>
        <time>2019-09-07T15:40:42Z</time>
      </trkpt>
      <trkpt lat="59.821248059821" lon="16.988738596237">
        <ele>33.2</ele>
        <time>2019-09-07T15:40:49Z</time>
      </trkpt>
      <trkpt lat="59.821060556718" lon="16.988816547907">
        <ele>32</ele>
        <time>2019-09-07T15:40:56Z</time>
      </trkpt>
      <trkpt lat="59.82088017823" lon="16.98890263002">
        <ele>30.8</ele>
        <time>2019-09-07T15:41:03Z</time>
      </trkpt>
      <trkpt lat="59.820699045371" lon="16.988981587518">
        <ele>30.2</ele>
        <time>2019-09-07T15:41:10Z</time>
      </trkpt>
      <trkpt lat="59.820517661055" lon="16.989072279676">
        <ele>30.2</ele>
        <time>2019-09-07T15:41:17Z</time>
      </trkpt>
      <trkpt lat="59.820336528196" lon="16.989169928811">
        <ele>31.8</ele>
        <time>2019-09-07T15:41:24Z</time>
      </trkpt>
      <trkpt lat="59.820156568803" lon="16.989263806091">
        <ele>34.2</ele>
        <time>2019-09-07T15:41:31Z</time>
      </trkpt>
      <trkpt lat="59.819971161175" lon="16.989358521561">
        <ele>34.6</ele>
        <time>2019-09-07T15:41:38Z</time>
      </trkpt>
      <trkpt lat="59.819787429927" lon="16.989432952833">
        <ele>32.8</ele>
        <time>2019-09-07T15:41:45Z</time>
      </trkpt>
      <trkpt lat="59.819608560181" lon="16.989475281428">
        <ele>30</ele>
        <time>2019-09-07T15:41:52Z</time>
      </trkpt>
      <trkpt lat="59.81941083116" lon="16.989585587232">
        <ele>31</ele>
        <time>2019-09-07T15:42:00Z</time>
      </trkpt>
      <trkpt lat="59.819237744925" lon="16.989689606611">
        <ele>32.6</ele>
        <time>2019-09-07T15:42:07Z</time>
      </trkpt>
      <trkpt lat="59.819135150469" lon="16.989762529141">
        <ele>32.8</ele>
        <time>2019-09-07T15:42:12Z</time>
      </trkpt>
      <trkpt lat="59.819210671388" lon="16.989699581072">
        <ele>31.4</ele>
        <time>2019-09-07T15:42:16Z</time>
      </trkpt>
      <trkpt lat="59.819389373496" lon="16.989577624427">
        <ele>29.4</ele>
        <time>2019-09-07T15:42:22Z</time>
      </trkpt>
      <trkpt lat="59.819563130283" lon="16.989477125446">
        <ele>29.4</ele>
        <time>2019-09-07T15:42:28Z</time>
      </trkpt>
      <trkpt lat="59.819742167667" lon="16.989345026702">
        <ele>28.4</ele>
        <time>2019-09-07T15:42:35Z</time>
      </trkpt>
      <trkpt lat="59.819922881431" lon="16.989264895738">
        <ele>28.6</ele>
        <time>2019-09-07T15:42:42Z</time>
      </trkpt>
      <trkpt lat="59.820013908865" lon="16.989099353213">
        <ele>32.8</ele>
        <time>2019-09-07T15:42:47Z</time>
      </trkpt>
      <trkpt lat="59.819973424288" lon="16.98870481718">
        <ele>34.2</ele>
        <time>2019-09-07T15:42:55Z</time>
      </trkpt>
      <trkpt lat="59.819912320237" lon="16.988367613343">
        <ele>35.8</ele>
        <time>2019-09-07T15:43:02Z</time>
      </trkpt>
      <trkpt lat="59.819853646937" lon="16.988026553832">
        <ele>37</ele>
        <time>2019-09-07T15:43:09Z</time>
      </trkpt>
      <trkpt lat="59.819795895646" lon="16.987681219552">
        <ele>36.8</ele>
        <time>2019-09-07T15:43:16Z</time>
      </trkpt>
      <trkpt lat="59.819746023341" lon="16.987332448693">
        <ele>36.6</ele>
        <time>2019-09-07T15:43:23Z</time>
      </trkpt>
      <trkpt lat="59.819694307018" lon="16.986986946775">
        <ele>37.2</ele>
        <time>2019-09-07T15:43:30Z</time>
      </trkpt>
      <trkpt lat="59.81963211332" lon="16.986600205909">
        <ele>38</ele>
        <time>2019-09-07T15:43:38Z</time>
      </trkpt>
      <trkpt lat="59.819559023152" lon="16.986229809748">
        <ele>38.8</ele>
        <time>2019-09-07T15:43:46Z</time>
      </trkpt>
      <trkpt lat="59.819505965725" lon="16.985918086887">
        <ele>38.2</ele>
        <time>2019-09-07T15:43:52Z</time>
      </trkpt>
    </trkseg>
  </trk>
</gpx>